createdAt,value
2019-05-09T00:01:23.658Z,8.80
2019-05-09T00:03:54.367Z,8.50
2019-05-09T00:06:23.925Z,8.65
2019-05-09T00:08:53.376Z,8.35
2019-05-09T00:11:24.406Z,7.92
2019-05-09T00:13:53.853Z,6.20
2019-05-09T00:16:23.491Z,6.40
2019-05-09T00:18:54.073Z,7.00
2019-05-09T00:21:33.226Z,7.30
2019-05-09T00:24:03.474Z,6.08
2019-05-09T00:26:33.869Z,7.58
2019-05-09T00:29:07.156Z,7.20
2019-05-09T00:31:54.070Z,6.80
2019-05-09T00:34:31.164Z,7.45
2019-05-09T00:36:59.816Z,5.50
2019-05-09T00:39:28.507Z,6.30
2019-05-09T00:41:57.156Z,5.72
2019-05-09T00:44:28.528Z,5.17
2019-05-09T00:47:09.323Z,5.45
2019-05-09T00:49:37.970Z,4.78
2019-05-09T00:52:06.643Z,4.80
2019-05-09T00:54:35.295Z,4.90
2019-05-09T00:57:03.976Z,5.17
2019-05-09T00:59:33.231Z,5.10
2019-05-09T01:02:03.892Z,4.83
2019-05-09T01:04:33.259Z,5.30
2019-05-09T01:07:03.504Z,3.87
2019-05-09T01:09:33.359Z,4.60
2019-05-09T01:12:04.168Z,4.50
2019-05-09T01:14:33.907Z,4.87
2019-05-09T01:17:04.249Z,4.97
2019-05-09T01:19:33.880Z,5.42
2019-05-09T01:22:03.811Z,5.25
2019-05-09T01:24:33.833Z,5.10
2019-05-09T01:27:03.646Z,6.00
2019-05-09T01:29:33.742Z,5.75
2019-05-09T01:32:05.115Z,5.10
2019-05-09T01:34:34.125Z,6.65
2019-05-09T01:37:06.776Z,5.55
2019-05-09T01:39:36.821Z,5.28
2019-05-09T01:42:08.101Z,4.42
2019-05-09T01:44:36.751Z,4.80
2019-05-09T01:47:05.520Z,5.70
2019-05-09T01:49:34.467Z,4.80
2019-05-09T01:52:03.573Z,4.22
2019-05-09T01:54:33.297Z,5.17
2019-05-09T01:57:03.230Z,5.65
2019-05-09T01:59:33.886Z,4.78
2019-05-09T02:02:08.108Z,5.05
2019-05-09T02:04:33.659Z,5.30
2019-05-09T02:07:04.081Z,5.67
2019-05-09T02:09:34.201Z,4.92
2019-05-09T02:12:04.076Z,5.17
2019-05-09T02:14:39.560Z,4.80
2019-05-09T02:17:24.807Z,4.85
2019-05-09T02:19:53.495Z,6.62
2019-05-09T02:22:34.948Z,3.80
2019-05-09T02:25:05.639Z,4.42
2019-05-09T02:27:34.387Z,6.10
2019-05-09T02:30:05.896Z,5.50
2019-05-09T02:32:34.733Z,5.45
2019-05-09T02:35:04.982Z,5.03
2019-05-09T02:37:33.910Z,6.83
2019-05-09T02:40:02.579Z,7.03
2019-05-09T02:42:31.233Z,6.67
2019-05-09T02:44:59.918Z,6.80
2019-05-09T02:47:29.168Z,6.50
2019-05-09T02:49:58.930Z,5.75
2019-05-09T02:52:28.828Z,7.20
2019-05-09T02:54:58.498Z,6.20
2019-05-09T02:57:29.438Z,5.08
2019-05-09T03:00:20.230Z,5.92
2019-05-09T03:02:59.553Z,4.78
2019-05-09T03:05:29.706Z,6.42
2019-05-09T03:07:58.414Z,6.15
2019-05-09T03:10:29.271Z,5.70
2019-05-09T03:12:59.374Z,5.33
2019-05-09T03:15:29.395Z,6.25
2019-05-09T03:17:59.854Z,6.35
2019-05-09T03:20:39.209Z,6.50
2019-05-09T03:23:09.293Z,6.37
2019-05-09T03:25:40.787Z,6.65
2019-05-09T03:28:19.696Z,6.35
2019-05-09T03:30:50.460Z,6.25
2019-05-09T03:33:20.191Z,5.20
2019-05-09T03:35:49.346Z,6.00
2019-05-09T03:38:18.072Z,6.35
2019-05-09T03:40:47.676Z,6.25
2019-05-09T03:43:18.334Z,4.28
2019-05-09T03:45:53.531Z,4.83
2019-05-09T03:48:28.445Z,4.80
2019-05-09T03:50:57.731Z,4.22
2019-05-09T03:53:27.593Z,3.62
2019-05-09T03:55:58.103Z,3.75
2019-05-09T03:58:28.150Z,3.65
2019-05-09T04:00:58.030Z,3.60
2019-05-09T04:03:27.636Z,3.37
2019-05-09T04:06:02.445Z,3.40
2019-05-09T04:08:28.229Z,3.22
2019-05-09T04:10:58.688Z,2.92
2019-05-09T04:13:32.402Z,3.90
2019-05-09T04:16:01.106Z,3.10
2019-05-09T04:18:29.835Z,2.65
2019-05-09T04:20:58.744Z,3.50
2019-05-09T04:23:27.782Z,2.83
2019-05-09T04:26:03.206Z,2.95
2019-05-09T04:28:31.979Z,2.98
2019-05-09T04:31:00.641Z,3.05
2019-05-09T04:33:29.307Z,2.65
2019-05-09T04:35:58.073Z,2.87
2019-05-09T04:38:27.950Z,2.25
2019-05-09T04:40:58.398Z,2.60
2019-05-09T04:43:35.562Z,2.75
2019-05-09T04:45:59.836Z,2.62
2019-05-09T04:48:32.145Z,3.27
2019-05-09T04:51:07.918Z,2.73
2019-05-09T04:53:41.401Z,2.55
2019-05-09T04:58:49.794Z,2.70
2019-05-09T05:01:28.187Z,2.40
2019-05-09T05:03:57.541Z,2.65
2019-05-09T05:06:28.140Z,2.40
2019-05-09T05:08:58.723Z,2.47
2019-05-09T05:11:28.715Z,2.35
2019-05-09T05:13:58.588Z,2.50
2019-05-09T05:16:27.955Z,2.77
2019-05-09T05:18:58.358Z,2.27
2019-05-09T05:21:28.613Z,2.50
2019-05-09T05:24:21.835Z,2.30
2019-05-09T05:26:52.740Z,3.25
2019-05-09T05:29:24.176Z,2.15
2019-05-09T05:31:58.077Z,2.50
2019-05-09T05:34:32.837Z,2.65
2019-05-09T05:37:03.464Z,2.17
2019-05-09T05:39:32.183Z,1.87
2019-05-09T05:42:01.182Z,2.87
2019-05-09T05:44:32.965Z,1.98
2019-05-09T05:47:29.849Z,2.42
2019-05-09T05:49:59.378Z,2.10
2019-05-09T05:52:31.171Z,2.20
2019-05-09T05:55:00.752Z,1.85
2019-05-09T05:57:32.149Z,2.80
2019-05-09T06:00:00.870Z,2.25
2019-05-09T06:02:29.899Z,2.00
2019-05-09T06:04:58.568Z,2.20
2019-05-09T06:07:28.446Z,2.30
2019-05-09T06:09:57.743Z,2.27
2019-05-09T06:12:27.607Z,2.50
2019-05-09T06:14:58.232Z,2.22
2019-05-09T06:17:28.735Z,2.20
2019-05-09T06:19:58.943Z,2.40
2019-05-09T06:22:29.205Z,2.60
2019-05-09T06:25:02.389Z,2.12
2019-05-09T06:27:38.241Z,2.45
2019-05-09T06:30:09.681Z,2.17
2019-05-09T06:32:39.476Z,2.22
2019-05-09T06:35:09.146Z,2.33
2019-05-09T06:37:39.790Z,2.00
2019-05-09T06:40:11.604Z,2.15
2019-05-09T06:42:40.248Z,2.12
2019-05-09T06:45:27.210Z,2.15
2019-05-09T06:47:58.332Z,1.98
2019-05-09T06:50:27.550Z,2.33
2019-05-09T06:52:57.447Z,1.77
2019-05-09T06:55:27.681Z,2.20
2019-05-09T06:57:58.301Z,2.22
2019-05-09T07:00:41.186Z,2.40
2019-05-09T07:03:14.379Z,2.20
2019-05-09T07:08:47.713Z,2.00
2019-05-09T07:11:18.992Z,2.27
2019-05-09T07:13:47.294Z,2.12
2019-05-09T07:16:18.681Z,1.82
2019-05-09T07:18:48.469Z,2.30
2019-05-09T07:21:18.957Z,2.27
2019-05-09T07:23:48.015Z,1.57
2019-05-09T07:26:19.754Z,1.75
2019-05-09T07:28:48.921Z,2.50
2019-05-09T07:31:42.952Z,2.35
2019-05-09T07:34:33.832Z,2.45
2019-05-09T07:37:03.129Z,2.20
2019-05-09T07:39:31.782Z,2.47
2019-05-09T07:42:00.488Z,2.15
2019-05-09T07:44:44.291Z,2.02
2019-05-09T07:47:01.422Z,1.90
2019-05-09T07:49:31.319Z,2.25
2019-05-09T07:52:06.163Z,2.25
2019-05-09T07:54:30.756Z,1.80
2019-05-09T07:56:59.480Z,1.62
2019-05-09T07:59:28.121Z,2.00
2019-05-09T08:04:28.659Z,2.17
2019-05-09T08:06:57.914Z,1.62
2019-05-09T08:07:32.001Z,1.90
2019-05-09T08:09:28.100Z,1.87
2019-05-09T08:11:58.812Z,1.82
2019-05-09T08:14:28.108Z,1.90
2019-05-09T08:16:58.104Z,1.90
2019-05-09T08:19:27.540Z,1.92
2019-05-09T08:21:57.606Z,1.80
2019-05-09T08:24:27.750Z,2.05
2019-05-09T08:26:58.060Z,1.95
2019-05-09T08:29:28.148Z,1.77
2019-05-09T08:31:58.267Z,1.67
2019-05-09T08:34:28.434Z,1.87
2019-05-09T08:36:58.187Z,1.72
2019-05-09T08:39:27.778Z,1.40
2019-05-09T08:41:59.264Z,1.92
2019-05-09T08:44:30.216Z,1.20
2019-05-09T08:46:57.546Z,1.82
2019-05-09T08:49:31.956Z,1.90
2019-05-09T08:52:15.589Z,1.60
2019-05-09T08:54:43.451Z,1.72
2019-05-09T08:57:12.193Z,2.40
2019-05-09T08:59:40.938Z,1.80
2019-05-09T09:02:15.417Z,1.70
2019-05-09T09:04:40.043Z,2.20
2019-05-09T09:07:08.772Z,1.80
2019-05-09T09:09:37.991Z,1.60
2019-05-09T09:12:25.225Z,1.40
2019-05-09T09:14:38.436Z,1.72
2019-05-09T09:17:07.995Z,1.70
2019-05-09T09:19:38.630Z,1.65
2019-05-09T09:22:08.848Z,1.57
2019-05-09T09:24:37.756Z,2.25
2019-05-09T09:27:07.655Z,2.37
2019-05-09T09:29:38.059Z,1.50
2019-05-09T09:32:08.310Z,1.52
2019-05-09T09:34:37.959Z,1.60
2019-05-09T09:37:11.285Z,2.35
2019-05-09T09:39:44.544Z,1.40
2019-05-09T09:42:09.052Z,2.10
2019-05-09T09:44:39.298Z,1.98
2019-05-09T09:47:08.401Z,1.52
2019-05-09T09:49:38.353Z,1.67
2019-05-09T09:52:08.501Z,1.67
2019-05-09T09:54:38.547Z,1.40
2019-05-09T09:57:09.712Z,1.62
2019-05-09T09:59:58.390Z,1.70
2019-05-09T10:02:31.076Z,1.70
2019-05-09T10:04:59.760Z,2.08
2019-05-09T10:07:28.415Z,1.45
2019-05-09T10:09:58.393Z,1.92
2019-05-09T10:12:28.790Z,1.90
2019-05-09T10:15:04.186Z,2.10
2019-05-09T10:17:42.199Z,2.27
2019-05-09T10:20:18.205Z,1.72
2019-05-09T10:22:57.611Z,2.77
2019-05-09T10:25:18.339Z,1.55
2019-05-09T10:27:48.068Z,1.40
2019-05-09T10:30:18.511Z,2.40
2019-05-09T10:32:47.698Z,1.70
2019-05-09T10:35:22.973Z,1.85
2019-05-09T10:37:51.664Z,1.50
2019-05-09T10:40:23.293Z,1.47
2019-05-09T10:42:59.605Z,2.42
2019-05-09T10:45:40.731Z,1.72
2019-05-09T10:48:09.520Z,1.72
2019-05-09T10:50:44.128Z,3.10
2019-05-09T10:53:08.621Z,1.67
2019-05-09T10:55:38.466Z,1.80
2019-05-09T10:58:08.325Z,1.90
2019-05-09T11:00:39.181Z,1.85
2019-05-09T11:03:08.826Z,2.08
2019-05-09T11:05:38.306Z,1.62
2019-05-09T11:08:08.229Z,1.60
2019-05-09T11:10:39.551Z,1.77
2019-05-09T11:13:08.033Z,1.40
2019-05-09T11:15:37.519Z,2.30
2019-05-09T11:18:08.126Z,2.20
2019-05-09T11:20:37.191Z,2.00
2019-05-09T11:23:08.136Z,1.75
2019-05-09T11:25:38.034Z,1.92
2019-05-09T11:28:11.516Z,2.10
2019-05-09T11:30:38.638Z,1.95
2019-05-09T11:33:07.975Z,1.67
2019-05-09T11:35:38.086Z,1.95
2019-05-09T11:38:08.332Z,2.02
2019-05-09T11:40:37.997Z,1.40
2019-05-09T11:43:09.665Z,1.65
2019-05-09T11:45:38.990Z,1.57
2019-05-09T11:48:11.014Z,2.25
2019-05-09T11:50:39.946Z,1.75
2019-05-09T11:53:09.032Z,1.55
2019-05-09T11:55:43.062Z,2.15
2019-05-09T11:58:08.986Z,1.70
2019-05-09T12:00:38.405Z,1.32
2019-05-09T12:03:09.121Z,1.82
2019-05-09T12:05:37.959Z,1.72
2019-05-09T12:08:08.454Z,1.98
2019-05-09T12:10:38.291Z,1.75
2019-05-09T12:13:08.633Z,2.47
2019-05-09T12:15:38.964Z,1.90
2019-05-09T12:18:09.157Z,1.80
2019-05-09T12:20:38.266Z,1.82
2019-05-09T12:23:07.885Z,1.70
2019-05-09T12:25:38.659Z,1.60
2019-05-09T12:28:07.815Z,2.50
2019-05-09T12:30:38.136Z,2.22
2019-05-09T12:33:08.641Z,2.02
2019-05-09T12:35:38.598Z,2.58
2019-05-09T12:38:08.379Z,2.00
2019-05-09T12:40:38.859Z,1.85
2019-05-09T12:43:09.121Z,2.33
2019-05-09T12:45:38.810Z,1.70
2019-05-09T12:48:14.943Z,2.10
2019-05-09T12:50:38.730Z,1.72
2019-05-09T12:53:07.747Z,2.12
2019-05-09T12:55:38.483Z,1.55
2019-05-09T12:58:09.829Z,1.50
2019-05-09T13:00:38.579Z,1.80
2019-05-09T13:03:08.676Z,1.30
2019-05-09T13:05:38.898Z,1.40
2019-05-09T13:08:10.390Z,1.50
2019-05-09T13:10:38.045Z,1.60
2019-05-09T13:13:08.701Z,1.30
2019-05-09T13:15:43.626Z,1.45
2019-05-09T13:18:21.874Z,1.35
2019-05-09T13:20:42.754Z,1.47
2019-05-09T13:23:11.407Z,1.25
2019-05-09T13:25:40.090Z,1.12
2019-05-09T13:28:09.481Z,1.00
2019-05-09T13:30:38.191Z,1.12
2019-05-09T13:33:10.551Z,1.10
2019-05-09T13:35:39.189Z,1.35
2019-05-09T13:38:08.744Z,1.27
2019-05-09T13:40:37.595Z,1.07
2019-05-09T13:43:08.666Z,1.70
2019-05-09T13:45:36.653Z,1.15
2019-05-09T13:48:23.874Z,1.05
2019-05-09T13:50:38.047Z,1.20
2019-05-09T13:53:07.623Z,1.35
2019-05-09T13:55:38.101Z,1.17
2019-05-09T13:58:07.596Z,1.00
2019-05-09T14:00:38.885Z,0.93
2019-05-09T14:03:08.099Z,1.10
2019-05-09T14:05:48.203Z,1.30
2019-05-09T14:08:18.186Z,1.12
2019-05-09T14:10:48.381Z,1.05
2019-05-09T14:13:23.391Z,1.17
2019-05-09T14:18:19.126Z,0.85
2019-05-09T14:20:48.372Z,1.50
2019-05-09T14:23:19.284Z,0.98
2019-05-09T14:25:51.722Z,0.90
2019-05-09T14:28:19.017Z,1.07
2019-05-09T14:30:47.838Z,1.00
2019-05-09T14:33:16.725Z,0.98
2019-05-09T14:35:47.780Z,1.10
2019-05-09T14:38:18.299Z,0.90
2019-05-09T14:40:47.451Z,0.80
2019-05-09T14:43:18.394Z,0.93
2019-05-09T14:45:48.361Z,0.85
2019-05-09T14:48:18.925Z,0.98
2019-05-09T14:50:49.408Z,0.90
2019-05-09T14:53:18.242Z,0.90
2019-05-09T14:55:47.581Z,0.88
2019-05-09T14:58:17.904Z,1.00
2019-05-09T15:00:48.000Z,0.80
2019-05-09T15:03:18.963Z,0.90
2019-05-09T15:05:48.140Z,0.90
2019-05-09T15:08:18.132Z,0.60
2019-05-09T15:10:46.995Z,1.00
2019-05-09T15:13:15.690Z,0.90
2019-05-09T15:15:44.400Z,0.78
2019-05-09T15:18:13.174Z,0.65
2019-05-09T15:20:41.848Z,1.10
2019-05-09T15:23:10.509Z,0.82
2019-05-09T15:25:39.203Z,1.00
2019-05-09T15:28:08.723Z,0.95
2019-05-09T15:30:38.579Z,1.10
2019-05-09T15:33:08.376Z,0.82
2019-05-09T15:35:39.141Z,1.15
2019-05-09T15:38:08.555Z,0.78
2019-05-09T15:40:38.672Z,1.02
2019-05-09T15:43:08.318Z,1.27
2019-05-09T15:45:44.738Z,1.30
2019-05-09T15:48:13.433Z,1.20
2019-05-09T15:50:42.184Z,1.20
2019-05-09T15:53:10.853Z,0.88
2019-05-09T15:55:40.860Z,1.00
2019-05-09T15:58:11.130Z,0.90
2019-05-09T16:00:40.643Z,0.65
2019-05-09T16:03:10.074Z,0.50
2019-05-09T16:05:39.907Z,1.00
2019-05-09T16:08:11.542Z,1.55
2019-05-09T16:10:41.623Z,0.78
2019-05-09T16:13:11.163Z,1.05
2019-05-09T16:15:40.503Z,0.80
2019-05-09T16:18:11.359Z,0.88
2019-05-09T16:20:41.426Z,0.75
2019-05-09T16:23:10.864Z,0.80
2019-05-09T16:25:42.111Z,0.78
2019-05-09T16:28:10.803Z,0.65
2019-05-09T16:30:41.090Z,0.98
2019-05-09T16:33:11.039Z,0.80
2019-05-09T16:35:39.744Z,0.80
2019-05-09T16:38:11.260Z,0.68
2019-05-09T16:40:40.765Z,0.85
2019-05-09T16:43:11.419Z,0.68
2019-05-09T16:45:42.785Z,1.47
2019-05-09T16:48:13.102Z,1.07
2019-05-09T16:50:59.561Z,1.02
2019-05-09T16:53:13.813Z,0.80
2019-05-09T16:55:42.506Z,1.15
2019-05-09T16:58:12.040Z,0.95
2019-05-09T17:00:44.659Z,0.60
2019-05-09T17:03:14.432Z,0.90
2019-05-09T17:05:44.078Z,0.80
2019-05-09T17:08:14.379Z,0.80
2019-05-09T17:10:44.289Z,0.90
2019-05-09T17:13:14.304Z,1.57
2019-05-09T17:15:44.461Z,0.85
2019-05-09T17:18:13.163Z,0.80
2019-05-09T17:21:16.000Z,0.80
2019-05-09T17:23:38.494Z,0.40
2019-05-09T17:26:08.285Z,0.78
2019-05-09T17:28:37.690Z,1.75
2019-05-09T17:31:08.665Z,0.70
2019-05-09T17:33:40.042Z,0.90
2019-05-09T17:36:09.521Z,0.80
2019-05-09T17:38:38.819Z,0.80
2019-05-09T17:41:08.214Z,0.50
2019-05-09T17:43:40.376Z,0.65
2019-05-09T17:46:09.732Z,2.00
2019-05-09T17:48:38.688Z,3.50
2019-05-09T17:51:08.472Z,2.20
2019-05-09T17:53:37.287Z,1.20
2019-05-09T17:56:10.560Z,1.42
2019-05-09T17:58:37.999Z,0.90
2019-05-09T18:01:07.847Z,1.02
2019-05-09T18:03:38.390Z,1.00
2019-05-09T18:06:08.259Z,1.30
2019-05-09T18:08:37.773Z,1.65
2019-05-09T18:11:09.202Z,0.80
2019-05-09T18:13:38.557Z,0.93
2019-05-09T18:16:07.544Z,0.85
2019-05-09T18:18:38.754Z,2.20
2019-05-09T18:21:08.521Z,2.22
2019-05-09T18:23:38.808Z,2.58
2019-05-09T18:26:07.983Z,1.50
2019-05-09T18:28:38.527Z,0.72
2019-05-09T18:31:08.044Z,1.00
2019-05-09T18:33:49.629Z,1.02
2019-05-09T18:36:18.377Z,0.93
2019-05-09T18:38:48.010Z,0.80
2019-05-09T18:41:17.744Z,0.70
2019-05-09T18:43:47.952Z,1.10
2019-05-09T18:46:18.595Z,0.90
2019-05-09T18:48:47.508Z,0.93
2019-05-09T18:51:16.320Z,0.82
2019-05-09T18:53:45.079Z,1.27
2019-05-09T18:56:13.749Z,1.20
2019-05-09T18:58:42.438Z,0.80
2019-05-09T19:01:11.140Z,0.95
2019-05-09T19:03:39.815Z,0.80
2019-05-09T19:06:08.637Z,1.15
2019-05-09T19:08:37.270Z,1.17
2019-05-09T19:11:05.930Z,1.05
2019-05-09T19:13:34.614Z,1.20
2019-05-09T19:16:21.280Z,1.60
2019-05-09T19:19:00.535Z,1.40
2019-05-09T19:21:36.289Z,1.27
2019-05-09T19:24:05.036Z,1.50
2019-05-09T19:26:36.732Z,1.67
2019-05-09T19:29:07.078Z,1.70
2019-05-09T19:31:36.196Z,1.72
2019-05-09T19:34:05.550Z,2.00
2019-05-09T19:36:34.363Z,2.33
2019-05-09T19:39:06.607Z,1.77
2019-05-09T19:41:37.586Z,1.82
2019-05-09T19:44:06.777Z,2.40
2019-05-09T19:46:35.985Z,1.95
2019-05-09T19:49:04.800Z,2.60
2019-05-09T19:51:33.909Z,2.47
2019-05-09T19:54:03.408Z,2.17
2019-05-09T19:56:32.375Z,2.52
2019-05-09T19:59:02.172Z,2.25
2019-05-09T20:01:32.414Z,2.60
2019-05-09T20:04:01.076Z,3.37
2019-05-09T20:06:30.672Z,3.37
2019-05-09T20:09:01.081Z,3.75
2019-05-09T20:11:51.586Z,3.85
2019-05-09T20:14:41.636Z,3.72
2019-05-09T20:17:10.307Z,3.50
2019-05-09T20:19:39.251Z,3.15
2019-05-09T20:22:08.073Z,3.05
2019-05-09T20:24:37.121Z,3.75
2019-05-09T20:27:06.608Z,3.37
2019-05-09T20:29:36.588Z,3.72
2019-05-09T20:32:05.739Z,3.92
2019-05-09T20:34:34.518Z,3.58
2019-05-09T20:37:03.167Z,3.70
2019-05-09T20:39:32.029Z,4.03
2019-05-09T20:42:01.165Z,3.62
2019-05-09T20:44:30.055Z,4.10
2019-05-09T20:46:59.322Z,4.35
2019-05-09T20:49:28.587Z,3.85
2019-05-09T20:51:58.082Z,4.55
2019-05-09T20:54:27.232Z,3.60
2019-05-09T20:56:56.067Z,4.45
2019-05-09T20:59:24.924Z,3.98
2019-05-09T21:01:53.791Z,4.87
2019-05-09T21:04:22.634Z,4.60
2019-05-09T21:06:51.477Z,4.33
2019-05-09T21:09:21.186Z,4.10
2019-05-09T21:11:50.073Z,4.60
2019-05-09T21:14:18.922Z,3.92
2019-05-09T21:16:47.807Z,4.55
2019-05-09T21:19:16.648Z,4.17
2019-05-09T21:21:45.477Z,4.15
2019-05-09T21:24:14.336Z,4.67
2019-05-09T21:26:43.531Z,4.62
2019-05-09T21:29:12.389Z,4.40
2019-05-09T21:31:41.266Z,3.85
2019-05-09T21:34:10.215Z,3.75
2019-05-09T21:36:38.870Z,4.33
2019-05-09T21:39:07.710Z,5.53
2019-05-09T21:41:36.364Z,4.22
2019-05-09T21:44:05.449Z,4.35
2019-05-09T21:46:34.379Z,4.20
2019-05-09T21:49:03.774Z,4.20
2019-05-09T21:51:32.457Z,3.77
2019-05-09T21:54:01.112Z,4.05
2019-05-09T21:56:30.186Z,4.20
2019-05-09T21:58:59.236Z,4.60
2019-05-09T22:01:28.048Z,4.30
2019-05-09T22:03:56.816Z,5.72
2019-05-09T22:06:25.476Z,6.30
2019-05-09T22:08:54.297Z,5.90
2019-05-09T22:11:23.053Z,5.62
2019-05-09T22:13:51.729Z,6.08
2019-05-09T22:16:20.408Z,5.45
2019-05-09T22:18:49.144Z,5.72
2019-05-09T22:21:24.202Z,5.95
2019-05-09T22:23:57.138Z,6.00
2019-05-09T22:26:23.686Z,5.40
2019-05-09T22:28:52.366Z,5.58
2019-05-09T22:31:21.091Z,5.33
2019-05-09T22:33:49.775Z,6.58
2019-05-09T22:36:18.966Z,7.85
2019-05-09T22:38:48.039Z,6.58
2019-05-09T22:41:17.062Z,7.55
2019-05-09T22:43:46.168Z,7.15
2019-05-09T22:46:14.837Z,8.13
2019-05-09T22:48:43.570Z,8.15
2019-05-09T22:51:12.642Z,7.53
2019-05-09T22:53:41.367Z,7.97
2019-05-09T22:56:10.122Z,7.20
2019-05-09T22:58:39.520Z,6.42
2019-05-09T23:01:08.269Z,6.15
2019-05-09T23:03:37.356Z,5.65
2019-05-09T23:06:06.610Z,9.78
2019-05-09T23:08:36.662Z,7.75
2019-05-09T23:11:05.612Z,7.72
2019-05-09T23:13:52.248Z,6.50
2019-05-09T23:16:24.005Z,6.47
2019-05-09T23:18:53.811Z,6.40
2019-05-09T23:21:23.673Z,5.42
2019-05-09T23:24:28.286Z,5.67
2019-05-09T23:26:48.360Z,5.22
2019-05-09T23:29:17.455Z,4.92
2019-05-09T23:31:59.764Z,5.05
2019-05-09T23:34:28.443Z,5.50
2019-05-09T23:36:57.124Z,6.45
2019-05-09T23:39:28.020Z,6.30
2019-05-09T23:41:56.779Z,4.95
2019-05-09T23:44:25.461Z,5.75
2019-05-09T23:46:54.230Z,5.90
2019-05-09T23:49:22.904Z,7.53
2019-05-09T23:51:51.584Z,6.80
2019-05-09T23:54:47.864Z,5.37
2019-05-09T23:57:28.901Z,5.85
